Time;durP1;ratioP1;P1;durP2;ratioP2;P2;SDS_P1;SDS_P2;PMS_P1;PMS_P2;Temp;Humidity;BMP_temperature;BMP_pressure;BME280_temperature;BME280_humidity;BME280_pressure;Samples;Min_cycle;Max_cycle;Signal;HPM_P1;HPM_P2
2023/05/24 05:29:46;;;;;;;8.80;6.10;;;;;;;19.55;96.64;99864.06;109563;1270;22673;-44
2023/05/24 05:32:14;;;;;;;6.60;5.80;;;;;;;19.61;95.60;99859.61;109723;1270;22364;-39
2023/05/24 05:34:42;;;;;;;7.10;6.00;;;;;;;19.65;94.05;99859.96;109809;1270;22230;-39
2023/05/24 05:37:11;;;;;;;12.90;6.30;;;;;;;19.72;93.56;99865.15;109348;1270;23192;-43
2023/05/24 05:39:39;;;;;;;8.20;5.50;;;;;;;19.80;92.59;99866.36;109511;1272;22450;-44
2023/05/24 05:42:11;;;;;;;8.00;5.70;;;;;;;19.89;90.82;99865.40;109353;1276;22874;-43
2023/05/24 05:44:39;;;;;;;10.10;5.70;;;;;;;19.97;89.92;99862.77;109139;1275;23097;-43
2023/05/24 05:47:08;;;;;;;8.20;6.30;;;;;;;20.06;89.18;99867.13;109799;1272;23004;-38
2023/05/24 05:49:36;;;;;;;6.30;4.70;;;;;;;20.19;88.14;99864.58;109752;1272;22374;-42
2023/05/24 05:52:05;;;;;;;8.60;5.60;;;;;;;20.36;87.52;99863.99;109022;1270;22595;-43
2023/05/24 05:55:00;;;;;;;8.20;5.80;;;;;;;20.52;86.76;99864.46;109260;1263;22473;-39
2023/05/24 05:57:46;;;;;;;6.80;5.00;;;;;;;20.67;85.31;99864.09;108829;1264;23358;-38
2023/05/24 06:00:56;;;;;;;8.50;5.60;;;;;;;20.86;83.55;99867.77;109861;1272;22495;-44
2023/05/24 06:03:54;;;;;;;8.90;5.20;;;;;;;21.05;82.22;99867.39;109780;1275;22220;-44
2023/05/24 06:06:52;;;;;;;9.10;6.00;;;;;;;21.19;81.12;99862.79;109545;1274;22665;-39
2023/05/24 06:10:34;;;;;;;9.80;6.20;;;;;;;21.35;79.75;99865.02;109070;1272;22530;-45
2023/05/24 06:14:04;;;;;;;8.70;6.60;;;;;;;21.45;78.59;99865.20;109722;1272;22341;-40
2023/05/24 06:21:31;;;;;;;8.00;5.40;;;;;;;21.55;77.33;99863.11;109278;1273;22397;-40
2023/05/24 06:32:34;;;;;;;8.20;4.40;;;;;;;21.84;73.17;99860.88;109777;1272;23554;-43
2023/05/24 06:35:57;;;;;;;4.10;3.70;;;;;;;22.00;72.59;99856.77;109872;1272;22370;-39
2023/05/24 06:38:49;;;;;;;9.50;4.40;;;;;;;22.17;71.70;99856.77;109814;1276;23538;-44
2023/05/24 06:41:22;;;;;;;6.00;4.00;;;;;;;22.35;71.30;99855.63;109854;1272;22469;-39
2023/05/24 06:43:50;;;;;;;4.30;3.60;;;;;;;22.45;70.67;99851.52;109458;1275;22291;-43
2023/05/24 06:46:18;;;;;;;7.50;3.70;;;;;;;22.52;69.22;99850.91;109772;1275;23410;-44
2023/05/24 06:48:46;;;;;;;8.80;4.30;;;;;;;22.63;68.94;99846.23;109794;1277;22903;-39
2023/05/24 06:51:16;;;;;;;8.20;3.80;;;;;;;22.77;68.51;99850.05;108214;1272;22533;-38
2023/05/24 06:53:47;;;;;;;5.80;4.00;;;;;;;22.82;67.55;99852.05;108527;1272;23701;-43
2023/05/24 06:56:17;;;;;;;9.10;3.70;;;;;;;22.74;67.29;99854.84;109405;1273;22437;-39
2023/05/24 06:58:49;;;;;;;8.20;4.20;;;;;;;22.64;67.85;99854.37;108814;1271;22758;-43
2023/05/24 07:01:22;;;;;;;3.90;3.50;;;;;;;22.55;68.01;99854.68;108621;1277;24198;-39
2023/05/24 07:09:00;;;;;;;9.00;4.60;;;;;;;22.45;68.95;99844.96;109852;1264;22396;-44
2023/05/24 07:19:42;;;;;;;8.50;4.20;;;;;;;22.47;69.16;99846.59;109735;1275;22955;-38
2023/05/24 07:23:00;;;;;;;10.10;4.10;;;;;;;22.45;68.53;99849.73;109244;1276;22595;-44
2023/05/24 07:26:22;;;;;;;5.00;3.60;;;;;;;22.35;68.34;99852.98;109520;1278;23175;-44
2023/05/24 07:29:21;;;;;;;8.90;3.90;;;;;;;22.24;68.34;99854.98;109423;1272;23224;-38
2023/05/24 07:31:50;;;;;;;7.50;3.80;;;;;;;22.18;68.48;99852.31;109365;1274;22451;-44
2023/05/24 07:34:21;;;;;;;4.80;4.00;;;;;;;22.11;68.59;99856.04;109423;1272;22732;-39
2023/05/24 07:36:57;;;;;;;5.40;3.30;;;;;;;22.08;68.93;99860.42;108512;1278;22560;-44
2023/05/24 07:39:26;;;;;;;6.40;3.50;;;;;;;22.17;69.07;99856.27;109775;1273;22308;-45
2023/05/24 07:41:54;;;;;;;7.10;3.90;;;;;;;22.37;69.19;99854.28;108951;1272;23030;-39
2023/05/24 07:44:23;;;;;;;4.50;3.90;;;;;;;22.54;68.55;99854.02;109642;1278;23619;-39
2023/05/24 07:46:51;;;;;;;4.90;3.30;;;;;;;22.58;67.75;99850.06;109762;1274;23628;-39
2023/05/24 07:49:18;;;;;;;8.60;4.10;;;;;;;22.70;67.89;99852.42;109670;1271;23056;-39
2023/05/24 07:51:46;;;;;;;6.90;3.50;;;;;;;22.80;67.30;99848.42;109758;1277;22386;-39
2023/05/24 07:54:15;;;;;;;4.30;3.30;;;;;;;22.93;66.87;99848.47;109672;1274;22298;-45
2023/05/24 07:56:43;;;;;;;4.30;3.50;;;;;;;23.12;66.46;99845.58;109670;1271;22498;-39
2023/05/24 07:59:14;;;;;;;4.90;3.70;;;;;;;23.22;65.14;99842.50;109748;1272;22560;-44
2023/05/24 08:01:42;;;;;;;5.00;3.20;;;;;;;23.29;64.60;99839.55;109563;1273;22529;-44
2023/05/24 08:04:19;;;;;;;5.80;3.50;;;;;;;23.42;63.85;99837.02;109609;1272;22431;-39
2023/05/24 08:07:20;;;;;;;5.90;3.20;;;;;;;23.66;64.55;99838.79;109410;1272;22211;-46
2023/05/24 08:10:36;;;;;;;4.00;3.30;;;;;;;24.06;63.36;99830.77;108911;1273;21855;-38
2023/05/24 08:13:52;;;;;;;3.80;2.80;;;;;;;24.41;62.10;99828.38;108794;1270;22536;-44
2023/05/24 08:17:02;;;;;;;3.50;3.20;;;;;;;24.63;60.67;99826.40;109512;1273;24210;-40
2023/05/24 08:24:14;;;;;;;;;;;;;;;24.55;59.64;99833.52;109382;1272;22500;-44
2023/05/24 08:27:48;;;;;;;4.00;3.20;;;;;;;24.52;59.02;99831.08;109779;1272;22398;-44
2023/05/24 08:31:00;;;;;;;4.60;2.90;;;;;;;24.49;58.91;99833.79;109720;1256;22792;-44
2023/05/24 08:37:52;;;;;;;3.70;2.60;;;;;;;24.12;59.11;99828.92;109397;1273;22581;-37
2023/05/24 08:40:22;;;;;;;3.90;3.20;;;;;;;24.02;58.92;99826.55;109445;1273;24224;-39
2023/05/24 08:43:10;;;;;;;5.10;3.20;;;;;;;23.92;59.00;99822.56;109434;1274;22420;-45
2023/05/24 08:52:48;;;;;;;9.60;4.50;;;;;;;23.82;60.03;99820.52;108731;1276;22348;-45
2023/05/24 09:03:46;;;;;;;3.20;2.90;;;;;;;24.04;59.64;99812.20;109831;1278;23141;-40
2023/05/24 09:06:51;;;;;;;8.00;4.00;;;;;;;24.23;59.51;99811.20;109919;1272;22430;-44
2023/05/24 09:10:08;;;;;;;4.70;3.10;;;;;;;24.27;59.07;99815.33;108878;1272;22375;-44
2023/05/24 09:12:37;;;;;;;;;;;;;;;24.29;59.18;99815.55;109748;1271;22586;-45
2023/05/24 09:15:31;;;;;;;6.20;3.90;;;;;;;24.29;59.14;99816.80;109325;1277;22408;-46
2023/05/24 09:18:14;;;;;;;4.00;3.60;;;;;;;24.27;58.76;99819.09;108883;1275;23084;-39
2023/05/24 09:20:42;;;;;;;6.10;3.70;;;;;;;24.21;58.54;99816.83;109924;1278;22186;-44
2023/05/24 09:23:13;;;;;;;4.90;3.10;;;;;;;24.15;58.92;99816.15;109809;1274;22394;-44
2023/05/24 09:25:46;;;;;;;5.10;4.00;;;;;;;24.08;58.50;99815.17;109761;1275;22542;-39
2023/05/24 09:28:50;;;;;;;8.40;3.70;;;;;;;24.01;58.51;99816.98;109345;1273;22576;-45
2023/05/24 09:31:18;;;;;;;4.50;3.50;;;;;;;23.95;58.24;99823.10;108582;1278;22469;-45
2023/05/24 09:33:47;;;;;;;3.50;3.10;;;;;;;23.85;58.32;99816.08;108943;1284;22622;-39
2023/05/24 09:36:15;;;;;;;6.10;3.40;;;;;;;23.77;58.33;99819.77;109043;1284;22813;-45
2023/05/24 09:38:43;;;;;;;6.80;3.40;;;;;;;23.73;58.25;99821.27;109250;1284;22232;-45
2023/05/24 09:41:11;;;;;;;7.70;3.30;;;;;;;23.73;58.90;99820.91;109409;1284;22507;-39
2023/05/24 09:43:50;;;;;;;7.20;3.40;;;;;;;23.76;59.27;99820.55;109257;1280;22329;-39
2023/05/24 09:46:20;;;;;;;3.40;3.10;;;;;;;23.79;59.60;99824.63;109234;1277;24491;-39
2023/05/24 09:48:56;;;;;;;4.60;3.50;;;;;;;23.85;59.38;99824.77;109166;1284;22484;-45
2023/05/24 09:51:24;;;;;;;3.40;2.80;;;;;;;23.88;58.97;99829.77;109139;1281;22282;-39
2023/05/24 09:53:55;;;;;;;4.70;3.40;;;;;;;23.85;59.51;99826.20;109102;1276;22513;-44
2023/05/24 09:56:24;;;;;;;5.60;3.50;;;;;;;23.77;60.43;99831.16;109174;1284;23129;-39
2023/05/24 09:58:53;;;;;;;6.70;3.50;;;;;;;23.68;60.73;99835.64;109384;1278;22230;-39
2023/05/24 10:01:23;;;;;;;5.40;3.60;;;;;;;23.58;61.13;99831.04;109494;1284;23393;-38
2023/05/24 10:03:52;;;;;;;4.20;3.60;;;;;;;23.51;61.61;99825.98;109530;1284;22307;-44
2023/05/24 10:06:20;;;;;;;4.40;3.60;;;;;;;23.48;62.14;99828.11;109488;1278;23881;-45
2023/05/24 10:08:48;;;;;;;7.20;4.20;;;;;;;23.45;62.56;99828.11;109229;1278;22307;-39
2023/05/24 10:11:15;;;;;;;4.70;3.10;;;;;;;23.41;63.25;99832.66;108974;1278;22449;-39
2023/05/24 10:13:43;;;;;;;7.50;3.30;;;;;;;23.34;63.98;99831.27;109953;1278;22318;-44
2023/05/24 10:16:11;;;;;;;9.10;3.70;;;;;;;23.25;64.74;99834.45;109907;1279;22292;-45
2023/05/24 10:18:39;;;;;;;4.80;4.00;;;;;;;23.17;65.17;99835.52;109956;1278;22281;-45
2023/05/24 10:21:08;;;;;;;4.40;3.40;;;;;;;23.10;65.58;99831.44;109913;1278;22625;-39
2023/05/24 10:23:37;;;;;;;5.70;3.50;;;;;;;23.06;66.23;99830.04;109845;1278;22318;-40
2023/05/24 10:26:07;;;;;;;14.60;4.80;;;;;;;23.03;67.12;99829.23;109857;1271;22384;-39
2023/05/24 10:28:41;;;;;;;8.20;4.40;;;;;;;22.99;68.26;99829.05;109801;1275;23082;-39
2023/05/24 10:31:14;;;;;;;4.50;3.90;;;;;;;22.95;69.18;99829.28;109779;1275;23341;-44
2023/05/24 10:33:43;;;;;;;5.40;4.00;;;;;;;22.91;69.88;99830.09;109631;1275;22846;-44
2023/05/24 10:36:13;;;;;;;6.50;3.50;;;;;;;22.89;70.34;99826.48;109675;1275;23210;-43
2023/05/24 10:38:40;;;;;;;5.60;4.00;;;;;;;22.89;70.66;99822.71;109866;1273;23646;-44
2023/05/24 10:41:08;;;;;;;4.10;3.70;;;;;;;22.92;71.24;99814.55;109882;1278;22984;-43
2023/05/24 10:43:36;;;;;;;4.70;3.90;;;;;;;22.97;71.69;99814.77;109745;1278;22403;-43
2023/05/24 10:46:04;;;;;;;5.70;4.00;;;;;;;23.04;72.37;99813.31;108944;1278;23330;-43
2023/05/24 10:48:41;;;;;;;6.80;3.50;;;;;;;23.13;72.44;99813.68;110022;1279;22923;-43
2023/05/24 10:51:38;;;;;;;4.90;4.30;;;;;;;23.22;71.53;99808.12;109019;1276;22818;-43
2023/05/24 10:54:11;;;;;;;7.40;4.10;;;;;;;23.38;70.98;99811.27;109098;1280;22414;-45
2023/05/24 10:56:49;;;;;;;5.40;3.60;;;;;;;23.48;70.70;99810.14;109109;1283;23447;-38
2023/05/24 10:59:27;;;;;;;20.10;4.70;;;;;;;23.61;69.64;99809.33;109210;1287;22198;-46
2023/05/24 11:01:57;;;;;;;4.70;3.30;;;;;;;23.74;68.33;99809.08;109266;1281;22434;-45
2023/05/24 11:04:27;;;;;;;3.70;3.40;;;;;;;23.87;66.66;99808.08;109135;1286;22516;-45
2023/05/24 11:07:05;;;;;;;6.10;3.80;;;;;;;24.01;65.87;99805.80;109254;1284;22377;-45
2023/05/24 11:09:32;;;;;;;7.20;2.90;;;;;;;24.14;65.81;99804.98;109241;1280;22945;-40
2023/05/24 11:12:09;;;;;;;5.30;3.70;;;;;;;24.23;65.22;99804.72;109043;1287;23520;-47
2023/05/24 11:14:38;;;;;;;8.00;4.30;;;;;;;24.31;64.94;99807.77;108862;1287;22176;-45
2023/05/24 11:17:06;;;;;;;6.40;3.50;;;;;;;24.39;64.71;99807.30;109290;1287;23224;-39
2023/05/24 11:19:39;;;;;;;4.40;3.90;;;;;;;24.45;64.63;99810.88;109130;1286;22296;-45
2023/05/24 11:22:06;;;;;;;;;;;;;;;24.49;64.39;99806.66;108974;1286;23635;-45
2023/05/24 11:24:35;;;;;;;6.00;4.70;;;;;;;24.52;64.72;99804.14;109267;1286;23002;-38
2023/05/24 11:27:03;;;;;;;4.50;3.40;;;;;;;24.55;64.54;99805.00;109268;1283;22506;-39
2023/05/24 11:29:30;;;;;;;6.20;3.30;;;;;;;24.60;64.29;99799.86;109234;1286;22652;-44
2023/05/24 11:32:03;;;;;;;3.30;3.00;;;;;;;24.67;63.29;99799.93;109775;1278;23071;-39
2023/05/24 11:34:32;;;;;;;4.50;3.70;;;;;;;24.74;62.23;99798.44;109912;1271;22759;-45
2023/05/24 11:37:04;;;;;;;4.60;3.20;;;;;;;24.81;62.16;99795.11;109957;1278;23041;-38
2023/05/24 11:39:34;;;;;;;7.50;3.70;;;;;;;24.88;61.92;99796.92;109891;1278;23100;-44
2023/05/24 11:42:08;;;;;;;3.40;3.00;;;;;;;24.93;61.44;99793.73;109960;1273;22393;-44
2023/05/24 11:44:38;;;;;;;5.00;3.30;;;;;;;25.01;59.87;99791.11;109929;1275;22360;-45
2023/05/24 11:47:07;;;;;;;4.00;3.40;;;;;;;25.06;59.14;99785.92;109971;1275;22152;-45
2023/05/24 11:49:34;;;;;;;6.80;3.60;;;;;;;25.12;59.40;99784.66;109938;1276;22417;-45
2023/05/24 11:52:02;;;;;;;4.60;3.70;;;;;;;25.18;59.84;99788.84;110097;1278;23119;-40
2023/05/24 11:54:33;;;;;;;3.80;3.00;;;;;;;25.23;59.41;99784.45;109969;1273;23250;-45
2023/05/24 11:57:02;;;;;;;3.50;3.20;;;;;;;25.24;59.44;99783.30;109977;1278;22768;-39
2023/05/24 11:59:30;;;;;;;3.60;3.20;;;;;;;25.25;59.47;99776.48;109304;1278;24195;-39
2023/05/24 12:02:00;;;;;;;5.10;3.10;;;;;;;25.27;58.82;99772.77;107326;1273;24205;-38
2023/05/24 12:04:28;;;;;;;4.90;3.40;;;;;;;25.28;58.07;99769.10;110017;1273;22398;-45
2023/05/24 12:06:56;;;;;;;8.80;3.50;;;;;;;25.28;57.90;99765.52;109997;1277;22297;-45
2023/05/24 12:09:24;;;;;;;6.00;3.10;;;;;;;25.33;57.93;99757.52;107950;1278;23185;-40
2023/05/24 12:11:52;;;;;;;4.20;3.20;;;;;;;25.38;57.76;99754.48;109094;1273;23065;-38
2023/05/24 12:14:25;;;;;;;5.90;3.50;;;;;;;25.43;57.28;99761.63;107917;1276;25326;-38
2023/05/24 12:16:55;;;;;;;5.40;3.00;;;;;;;25.48;56.76;99757.68;107343;1278;22538;-44
2023/05/24 12:19:29;;;;;;;2.90;2.60;;;;;;;25.56;56.51;99760.52;110014;1273;22716;-38
2023/05/24 12:22:06;;;;;;;6.50;3.00;;;;;;;25.63;55.76;99759.52;109763;1278;22554;-39
2023/05/24 12:24:36;;;;;;;4.70;2.70;;;;;;;25.69;55.69;99756.94;107635;1278;22299;-45
2023/05/24 12:27:07;;;;;;;5.70;2.60;;;;;;;25.78;55.08;99753.14;109952;1278;22347;-45
2023/05/24 12:29:37;;;;;;;4.20;3.10;;;;;;;25.85;55.01;99754.39;110013;1278;23308;-43
2023/05/24 12:32:10;;;;;;;3.10;2.70;;;;;;;25.92;54.66;99750.63;109505;1278;22536;-45
2023/05/24 12:34:42;;;;;;;3.40;2.90;;;;;;;25.97;53.89;99748.66;108603;1278;22206;-45
2023/05/24 12:37:11;;;;;;;7.40;3.30;;;;;;;25.95;53.61;99748.82;109693;1278;22803;-46
2023/05/24 12:39:41;;;;;;;6.10;2.80;;;;;;;25.97;53.62;99749.58;109752;1278;22990;-46
2023/05/24 12:42:10;;;;;;;3.30;2.50;;;;;;;26.03;53.97;99752.53;109777;1278;23099;-38
2023/05/24 12:44:38;;;;;;;6.10;2.50;;;;;;;26.08;53.38;99756.29;109261;1278;22524;-46
2023/05/24 12:47:06;;;;;;;3.60;2.20;;;;;;;26.11;52.42;99755.34;109198;1278;22402;-40
2023/05/24 12:49:35;;;;;;;6.20;2.50;;;;;;;26.10;51.97;99759.39;109998;1278;22437;-40
2023/05/24 12:52:03;;;;;;;4.20;1.90;;;;;;;26.08;51.85;99755.77;109991;1278;22244;-38
2023/05/24 12:54:31;;;;;;;2.30;2.10;;;;;;;26.07;51.30;99758.20;109768;1278;22213;-44
2023/05/24 12:57:01;;;;;;;3.40;2.10;;;;;;;26.01;50.72;99754.83;109979;1278;22168;-40
2023/05/24 12:59:29;;;;;;;2.80;1.90;;;;;;;25.96;50.90;99752.80;109983;1278;22305;-40
2023/05/24 13:01:57;;;;;;;4.40;2.10;;;;;;;25.95;51.46;99751.33;108521;1278;22554;-40
2023/05/24 13:04:25;;;;;;;2.60;2.10;;;;;;;25.87;51.45;99748.17;106931;1278;25275;-40
2023/05/24 13:06:54;;;;;;;3.10;2.10;;;;;;;25.83;51.58;99746.14;106659;1278;25482;-43
2023/05/24 13:09:22;;;;;;;2.50;1.90;;;;;;;25.84;51.78;99745.19;106577;1278;22625;-43
2023/05/24 13:11:51;;;;;;;2.90;1.90;;;;;;;25.85;50.39;99743.30;106994;1278;22527;-38
2023/05/24 13:14:19;;;;;;;2.50;1.90;;;;;;;25.85;49.77;99750.65;106913;1278;22524;-46
2023/05/24 13:16:47;;;;;;;4.10;2.80;;;;;;;25.80;51.83;99756.02;106527;1278;22631;-39
2023/05/24 13:19:15;;;;;;;6.10;3.10;;;;;;;25.64;53.87;99758.13;106909;1278;22635;-39
2023/05/24 13:21:44;;;;;;;5.90;3.30;;;;;;;25.47;54.95;99756.52;106811;1278;22534;-39
2023/05/24 13:24:14;;;;;;;4.00;3.20;;;;;;;25.31;55.81;99758.87;107057;1278;25262;-39
2023/05/24 13:26:43;;;;;;;3.30;2.60;;;;;;;25.21;56.65;99756.52;106737;1278;25401;-40
2023/05/24 13:29:11;;;;;;;7.10;3.50;;;;;;;25.20;56.98;99754.60;107123;1278;22526;-42
2023/05/24 13:31:42;;;;;;;5.60;2.80;;;;;;;25.26;57.55;99755.84;107064;1278;26499;-39
2023/05/24 13:34:10;;;;;;;3.10;2.80;;;;;;;25.32;57.45;99751.88;107028;1278;22542;-44
2023/05/24 13:36:38;;;;;;;4.90;3.10;;;;;;;25.50;57.22;99749.13;107324;1278;22528;-44
2023/05/24 13:39:08;;;;;;;3.00;2.60;;;;;;;25.82;56.44;99752.08;107015;1278;22536;-45
2023/05/24 13:41:39;;;;;;;5.70;2.50;;;;;;;26.01;54.74;99762.14;106961;1278;25265;-40
2023/05/24 13:44:08;;;;;;;2.80;2.60;;;;;;;26.08;53.85;99761.33;106813;1278;22544;-43
2023/05/24 13:46:37;;;;;;;5.00;3.00;;;;;;;26.15;53.34;99758.45;106986;1278;22530;-44
2023/05/24 13:49:06;;;;;;;5.90;3.80;;;;;;;26.23;53.50;99758.21;106856;1278;22554;-40
2023/05/24 13:51:34;;;;;;;6.60;3.20;;;;;;;26.21;53.21;99761.42;107069;1278;22647;-39
2023/05/24 13:54:02;;;;;;;5.10;3.00;;;;;;;26.05;53.30;99762.96;107100;1278;22521;-44
2023/05/24 13:56:31;;;;;;;6.80;3.50;;;;;;;25.85;53.87;99760.14;107158;1278;25561;-40
2023/05/24 13:59:00;;;;;;;4.70;3.70;;;;;;;25.67;54.30;99769.39;107031;1278;22823;-38
2023/05/24 14:01:28;;;;;;;5.20;3.50;;;;;;;25.57;54.38;99770.63;106890;1278;22518;-44
2023/05/24 14:03:55;;;;;;;4.70;3.90;;;;;;;25.52;54.83;99771.92;106895;1278;23863;-43
2023/05/24 14:06:23;;;;;;;5.40;3.70;;;;;;;25.40;55.08;99763.98;106925;1278;22535;-43
2023/05/24 14:08:51;;;;;;;9.80;4.20;;;;;;;25.22;55.67;99755.96;107001;1278;25912;-39
2023/05/24 14:11:19;;;;;;;4.60;3.80;;;;;;;25.07;56.06;99757.51;106870;1278;22523;-43
2023/05/24 14:13:47;;;;;;;6.40;4.10;;;;;;;24.91;56.20;99763.05;106685;1278;23893;-44
2023/05/24 14:16:18;;;;;;;7.70;4.00;;;;;;;24.80;56.82;99760.21;106935;1278;24223;-43
2023/05/24 14:18:47;;;;;;;5.70;3.70;;;;;;;24.83;57.34;99759.97;106904;1278;22531;-40
2023/05/24 14:21:17;;;;;;;3.70;3.40;;;;;;;25.01;57.55;99754.88;106981;1278;22530;-40
2023/05/24 14:23:44;;;;;;;7.90;4.00;;;;;;;25.20;57.52;99756.98;106744;1278;26465;-43
2023/05/24 14:26:12;;;;;;;5.60;3.40;;;;;;;25.35;57.04;99755.40;106886;1278;22530;-39
2023/05/24 14:28:40;;;;;;;3.90;3.60;;;;;;;25.44;56.36;99755.82;106613;1278;22549;-43
2023/05/24 14:31:07;;;;;;;4.00;3.60;;;;;;;25.48;55.92;99755.51;106959;1278;22542;-39
2023/05/24 14:33:36;;;;;;;5.90;3.90;;;;;;;25.55;56.02;99756.88;107057;1278;22569;-39
2023/05/24 14:36:05;;;;;;;4.20;3.40;;;;;;;25.55;55.96;99760.45;106710;1278;24203;-39
2023/05/24 14:38:32;;;;;;;4.40;3.60;;;;;;;25.45;55.56;99756.15;106493;1278;23907;-44
2023/05/24 14:41:01;;;;;;;9.60;4.30;;;;;;;25.33;55.65;99754.27;107085;1279;22528;-44
2023/05/24 14:43:29;;;;;;;5.10;4.00;;;;;;;25.28;55.78;99755.70;106841;1279;23866;-44
2023/05/24 14:45:56;;;;;;;4.10;3.70;;;;;;;25.25;56.51;99751.65;108467;1279;24171;-44
2023/05/24 14:48:24;;;;;;;4.20;3.70;;;;;;;25.22;56.65;99750.55;108340;1279;24240;-46
2023/05/24 14:50:51;;;;;;;4.60;3.40;;;;;;;25.15;56.52;99752.69;106688;1279;24283;-39
2023/05/24 14:53:19;;;;;;;5.00;3.50;;;;;;;25.03;56.26;99751.71;106717;1279;22539;-44
2023/05/24 14:55:47;;;;;;;3.90;3.50;;;;;;;24.97;56.62;99750.33;107125;1279;22527;-39
2023/05/24 14:58:15;;;;;;;6.20;3.60;;;;;;;24.89;56.42;99748.71;106602;1279;22829;-43
2023/05/24 15:00:42;;;;;;;3.70;3.20;;;;;;;24.78;56.55;99750.20;106501;1279;25297;-46
2023/05/24 15:03:13;;;;;;;3.40;3.10;;;;;;;24.67;56.87;99748.41;106801;1279;22498;-41
2023/05/24 15:05:41;;;;;;;4.80;3.80;;;;;;;24.71;57.29;99746.02;106726;1279;25486;-44
2023/05/24 15:08:10;;;;;;;4.20;3.60;;;;;;;24.76;57.37;99749.22;107015;1279;25345;-40
2023/05/24 15:10:38;;;;;;;5.40;4.00;;;;;;;24.78;57.92;99752.86;107120;1279;24291;-39
2023/05/24 15:13:06;;;;;;;5.90;4.10;;;;;;;24.81;58.56;99760.10;106956;1279;22783;-44
2023/05/24 15:15:34;;;;;;;10.70;4.10;;;;;;;24.87;59.11;99760.28;106805;1279;22533;-44
2023/05/24 15:18:02;;;;;;;7.20;4.10;;;;;;;24.88;59.66;99763.23;106789;1279;22518;-40
2023/05/24 15:20:32;;;;;;;8.00;4.40;;;;;;;24.87;59.46;99766.16;106941;1279;22550;-41
2023/05/24 15:23:02;;;;;;;9.80;4.30;;;;;;;24.84;59.35;99766.03;106985;1279;22534;-43
2023/05/24 15:25:30;;;;;;;5.50;4.20;;;;;;;24.82;59.04;99769.70;106638;1279;22536;-43
2023/05/24 15:27:57;;;;;;;5.90;4.10;;;;;;;24.82;59.21;99772.40;106928;1279;22518;-44
2023/05/24 15:30:25;;;;;;;5.00;3.90;;;;;;;24.92;58.88;99773.86;106982;1279;24440;-44
2023/05/24 15:32:52;;;;;;;4.90;3.80;;;;;;;25.05;57.97;99771.73;106637;1279;22603;-41
2023/05/24 15:35:20;;;;;;;4.90;4.40;;;;;;;25.19;57.54;99772.20;106862;1279;22529;-40
2023/05/24 15:37:48;;;;;;;6.20;4.20;;;;;;;25.25;57.36;99772.85;106589;1279;25295;-45
2023/05/24 15:40:17;;;;;;;4.30;3.90;;;;;;;25.20;57.37;99769.48;106710;1279;22542;-44
2023/05/24 15:42:45;;;;;;;5.70;3.90;;;;;;;25.09;57.52;99768.63;107014;1279;22526;-39
2023/05/24 15:45:12;;;;;;;5.10;4.10;;;;;;;24.93;57.76;99765.73;106902;1279;22532;-43
2023/05/24 15:47:40;;;;;;;4.90;4.40;;;;;;;24.78;57.98;99767.10;107170;1277;24240;-38
2023/05/24 15:50:08;;;;;;;7.50;4.00;;;;;;;24.63;58.02;99764.02;107080;1277;25271;-45
2023/05/24 15:52:36;;;;;;;6.80;3.80;;;;;;;24.49;57.93;99771.92;106767;1278;22527;-44
2023/05/24 15:55:05;;;;;;;4.30;3.90;;;;;;;24.35;57.96;99772.46;107163;1277;23874;-44
2023/05/24 15:57:32;;;;;;;5.70;3.50;;;;;;;24.24;58.25;99775.11;107293;1277;24162;-39
2023/05/24 16:00:00;;;;;;;5.40;4.10;;;;;;;24.18;58.75;99778.87;107064;1278;25038;-43
2023/05/24 16:02:38;;;;;;;4.60;4.00;;;;;;;24.11;58.72;99775.92;106655;1278;25340;-39
2023/05/24 16:05:06;;;;;;;5.00;4.50;;;;;;;24.04;58.46;99771.92;107245;1277;25331;-43
2023/05/24 16:07:34;;;;;;;9.20;4.30;;;;;;;23.96;59.12;99767.97;107082;1277;22536;-39
2023/05/24 16:10:01;;;;;;;5.70;4.70;;;;;;;23.87;60.12;99764.84;106940;1278;22823;-38
2023/05/24 16:12:29;;;;;;;4.80;4.30;;;;;;;23.75;60.67;99770.92;107049;1278;22112;-38
2023/05/24 16:14:58;;;;;;;6.40;4.90;;;;;;;23.63;61.22;99778.09;106578;1278;22539;-44
2023/05/24 16:17:26;;;;;;;6.30;4.60;;;;;;;23.52;61.90;99779.83;106884;1278;25245;-39
2023/05/24 16:19:54;;;;;;;6.10;4.80;;;;;;;23.41;62.38;99790.10;106955;1277;22513;-41
2023/05/24 16:22:22;;;;;;;8.40;4.90;;;;;;;23.29;62.99;99798.11;106865;1267;25221;-38
2023/05/24 16:24:50;;;;;;;6.00;5.10;;;;;;;23.18;63.56;99800.58;106990;1278;22522;-38
2023/05/24 16:27:18;;;;;;;8.40;5.40;;;;;;;23.06;64.11;99800.20;106751;1278;22552;-39
2023/05/24 16:29:46;;;;;;;9.00;5.40;;;;;;;22.96;64.70;99801.36;107132;1278;25438;-40
2023/05/24 16:32:14;;;;;;;11.70;5.30;;;;;;;22.84;65.30;99801.45;106857;1278;24201;-44
2023/05/24 16:34:42;;;;;;;11.10;4.90;;;;;;;22.76;65.99;99803.19;107149;1277;22569;-43
2023/05/24 16:37:23;;;;;;;6.80;5.70;;;;;;;22.66;66.62;99801.60;106950;1278;22537;-39
2023/05/24 16:39:51;;;;;;;7.80;5.10;;;;;;;22.57;67.00;99802.86;107103;1277;22548;-40
2023/05/24 16:42:18;;;;;;;9.20;5.20;;;;;;;22.48;67.70;99796.61;106708;1278;22556;-40
2023/05/24 16:44:46;;;;;;;7.20;5.50;;;;;;;22.40;68.11;99796.36;107035;1278;25232;-45
2023/05/24 16:47:14;;;;;;;7.30;5.30;;;;;;;22.31;68.77;99797.42;107023;1278;22529;-44
2023/05/24 16:49:41;;;;;;;9.30;5.50;;;;;;;22.21;69.32;99797.08;106804;1278;22527;-39
2023/05/24 16:52:09;;;;;;;6.20;5.00;;;;;;;22.12;69.86;99804.85;106853;1277;22522;-39
2023/05/24 16:54:37;;;;;;;7.10;5.20;;;;;;;22.03;70.38;99819.52;106480;1278;25349;-43
2023/05/24 16:57:05;;;;;;;6.60;5.40;;;;;;;21.92;71.12;99824.58;107077;1278;25227;-40
2023/05/24 16:59:33;;;;;;;7.30;5.60;;;;;;;21.81;71.76;99835.11;106799;1278;23005;-44
2023/05/24 17:02:00;;;;;;;11.00;5.40;;;;;;;21.71;72.25;99844.68;107076;1278;22547;-43
2023/05/24 17:04:28;;;;;;;5.60;5.00;;;;;;;21.63;73.01;99849.73;106917;1278;24211;-45
2023/05/24 17:06:56;;;;;;;9.50;5.90;;;;;;;21.54;73.55;99852.16;108997;1278;22294;-44
2023/05/24 17:09:23;;;;;;;9.60;5.90;;;;;;;21.43;74.02;99850.76;107876;1278;24250;-44
2023/05/24 17:11:51;;;;;;;12.60;6.80;;;;;;;21.34;74.62;99852.14;106916;1278;22646;-43
2023/05/24 17:14:19;;;;;;;11.60;7.20;;;;;;;21.24;75.32;99860.18;107235;1277;22133;-42
2023/05/24 17:16:46;;;;;;;12.30;6.40;;;;;;;21.16;75.26;99873.02;106514;1278;22544;-43
2023/05/24 17:19:14;;;;;;;10.90;7.20;;;;;;;21.08;75.80;99883.90;107161;1278;22539;-45
2023/05/24 17:21:42;;;;;;;10.30;6.70;;;;;;;21.02;76.49;99893.41;106961;1278;24162;-43
2023/05/24 17:24:09;;;;;;;10.90;7.00;;;;;;;20.95;76.68;99900.31;106731;1278;22530;-45
2023/05/24 17:26:39;;;;;;;10.60;6.50;;;;;;;20.87;76.28;99903.89;106664;1278;168332;-38
2023/05/24 17:29:07;;;;;;;10.70;7.30;;;;;;;20.78;76.66;99902.39;106913;1278;25268;-39
2023/05/24 17:31:36;;;;;;;13.00;7.90;;;;;;;20.73;76.95;99904.57;107422;1278;22534;-39
2023/05/24 17:34:04;;;;;;;10.90;7.80;;;;;;;20.69;77.33;99908.13;107006;1278;23260;-43
2023/05/24 17:36:32;;;;;;;14.00;7.70;;;;;;;20.65;77.76;99908.51;107342;1278;22647;-39
2023/05/24 17:39:00;;;;;;;10.90;7.50;;;;;;;20.61;77.84;99909.41;107052;1278;24293;-39
2023/05/24 17:41:27;;;;;;;13.30;7.50;;;;;;;20.58;78.14;99911.52;107106;1278;25331;-39
2023/05/24 17:43:55;;;;;;;12.70;7.60;;;;;;;20.54;78.40;99911.36;107183;1277;22523;-44
2023/05/24 17:46:23;;;;;;;13.20;8.30;;;;;;;20.50;78.30;99913.31;106907;1278;22531;-44
2023/05/24 17:48:50;;;;;;;20.30;7.50;;;;;;;20.46;78.71;99917.34;107222;1278;25346;-45
2023/05/24 17:51:18;;;;;;;11.50;8.30;;;;;;;20.43;78.26;99913.95;106818;1278;22532;-42
2023/05/24 17:53:46;;;;;;;9.40;7.00;;;;;;;20.40;79.10;99916.20;107066;1278;22552;-44
2023/05/24 17:56:14;;;;;;;12.80;7.40;;;;;;;20.36;79.49;99917.63;107010;1254;22538;-44
2023/05/24 17:58:42;;;;;;;11.70;7.60;;;;;;;20.30;79.71;99920.38;107113;1278;22529;-39
2023/05/24 18:01:14;;;;;;;14.00;7.90;;;;;;;20.24;79.96;99920.84;106900;1278;22512;-39
2023/05/24 18:03:41;;;;;;;15.70;8.00;;;;;;;20.17;80.46;99917.42;107172;1277;22517;-44
2023/05/24 18:06:09;;;;;;;14.10;8.40;;;;;;;20.10;80.52;99921.10;106896;1277;23903;-44
2023/05/24 18:08:41;;;;;;;22.60;9.50;;;;;;;20.02;80.89;99924.11;107336;1278;22791;-39